Time;durP1;ratioP1;P1;durP2;ratioP2;P2;SDS_P1;SDS_P2;PMS_P1;PMS_P2;Temp;Humidity;BMP_temperature;BMP_pressure;BME280_temperature;BME280_humidity;BME280_pressure;Samples;Min_cycle;Max_cycle;Signal;HPM_P1;HPM_P2
2023/05/21 15:37:42;;;;;;;19.67;17.70;;;;;;;;;;5144848;27;21394;-58
2023/05/21 15:40:09;;;;;;;21.37;18.17;;;;;;;;;;5145925;27;20511;-58
2023/05/21 15:42:35;;;;;;;18.80;16.83;;;;;;;;;;5114723;28;20571;-58
2023/05/21 15:45:02;;;;;;;19.40;17.50;;;;;;;;;;5118518;28;20478;-57
2023/05/21 15:47:28;;;;;;;18.67;16.70;;;;;;;;;;5116131;28;20504;-57
2023/05/21 15:49:55;;;;;;;19.03;17.23;;;;;;;;;;5117451;28;20446;-57
2023/05/21 15:52:22;;;;;;;20.10;18.07;;;;;;;;;;5116274;28;21165;-58
2023/05/21 15:54:49;;;;;;;18.77;16.90;;;;;;;;;;5113039;28;20486;-58
2023/05/21 15:57:16;;;;;;;19.30;17.50;;;;;;;;;;5116815;27;20663;-57
2023/05/21 15:59:42;;;;;;;18.13;16.47;;;;;;;;;;5116251;28;20477;-58
2023/05/21 16:02:09;;;;;;;16.97;15.37;;;;;;;;;;5118110;28;20470;-57
2023/05/21 16:04:35;;;;;;;18.90;16.90;;;;;;;;;;5116963;28;20979;-57
2023/05/21 16:07:02;;;;;;;18.07;16.33;;;;;;;;;;5117110;28;20490;-57
2023/05/21 16:09:28;;;;;;;22.97;20.80;;;;;;;;;;5117421;28;20465;-57
2023/05/21 16:11:56;;;;;;;17.10;15.30;;;;;;;;;;5117250;28;20497;-57
2023/05/21 16:14:24;;;;;;;17.97;16.20;;;;;;;;;;5117334;28;20514;-57
2023/05/21 16:16:50;;;;;;;18.03;16.23;;;;;;;;;;5113052;28;20508;-57
2023/05/21 16:19:17;;;;;;;17.57;15.97;;;;;;;;;;5117724;28;20484;-57
2023/05/21 16:21:45;;;;;;;18.03;16.40;;;;;;;;;;5117123;28;20541;-57
2023/05/21 16:24:11;;;;;;;17.90;16.10;;;;;;;;;;5114192;28;20488;-58
2023/05/21 16:26:37;;;;;;;17.40;15.23;;;;;;;;;;5123081;28;20513;-58
2023/05/21 16:29:05;;;;;;;17.13;15.53;;;;;;;;;;5127437;28;20450;-58
2023/05/21 16:31:32;;;;;;;18.60;16.70;;;;;;;;;;5119743;28;20482;-58
2023/05/21 16:33:58;;;;;;;17.07;15.40;;;;;;;;;;5119327;28;20488;-58
2023/05/21 16:36:24;;;;;;;17.30;15.70;;;;;;;;;;5121119;28;20510;-57
2023/05/21 16:38:51;;;;;;;15.73;14.10;;;;;;;;;;5117614;28;20450;-57
2023/05/21 16:41:18;;;;;;;16.60;14.90;;;;;;;;;;5116686;28;20466;-57
2023/05/21 16:43:44;;;;;;;16.40;14.80;;;;;;;;;;5116752;28;20917;-58
2023/05/21 16:46:12;;;;;;;17.53;15.27;;;;;;;;;;5111912;28;20484;-57
2023/05/21 16:48:40;;;;;;;17.10;15.40;;;;;;;;;;5096387;28;20490;-58
2023/05/21 16:51:07;;;;;;;16.47;14.90;;;;;;;;;;5094660;28;20486;-57
2023/05/21 16:55:49;;;;;;;16.33;14.83;;;;;;;;;;5133405;27;20585;-57
2023/05/21 16:58:15;;;;;;;17.13;15.53;;;;;;;;;;5099802;28;20470;-57
2023/05/21 17:00:42;;;;;;;15.50;14.00;;;;;;;;;;5095611;28;20499;-57
2023/05/21 17:03:08;;;;;;;15.53;14.07;;;;;;;;;;5082749;28;20471;-57
2023/05/21 17:05:35;;;;;;;16.57;14.87;;;;;;;;;;5084398;28;20490;-57
2023/05/21 17:08:03;;;;;;;16.37;14.67;;;;;;;;;;5097991;28;20450;-58
2023/05/21 17:10:35;;;;;;;14.30;13.00;;;;;;;;;;5099764;28;20491;-57
2023/05/21 17:13:03;;;;;;;16.00;14.37;;;;;;;;;;5098053;28;20466;-57
2023/05/21 17:15:32;;;;;;;16.17;14.27;;;;;;;;;;5097688;28;20463;-58
2023/05/21 17:17:58;;;;;;;14.30;13.00;;;;;;;;;;5103437;28;20546;-58
2023/05/21 17:20:25;;;;;;;16.20;13.97;;;;;;;;;;5088434;28;20455;-58
2023/05/21 17:22:51;;;;;;;15.63;13.93;;;;;;;;;;5104580;28;20458;-58
2023/05/21 17:25:19;;;;;;;15.87;14.37;;;;;;;;;;5089275;28;20446;-58
2023/05/21 17:27:45;;;;;;;14.70;13.30;;;;;;;;;;5095293;28;21006;-58
2023/05/21 17:30:13;;;;;;;15.73;14.13;;;;;;;;;;5092400;28;20452;-58
2023/05/21 17:32:39;;;;;;;15.17;13.70;;;;;;;;;;5091978;28;20462;-57
2023/05/21 17:35:06;;;;;;;15.80;14.20;;;;;;;;;;5094357;28;20487;-57
2023/05/21 17:37:33;;;;;;;15.30;13.90;;;;;;;;;;5087818;28;20490;-57
2023/05/21 17:39:59;;;;;;;15.87;14.37;;;;;;;;;;5087640;28;21103;-57
2023/05/21 17:42:26;;;;;;;17.67;14.13;;;;;;;;;;5087277;28;20510;-57
2023/05/21 17:44:53;;;;;;;15.53;14.13;;;;;;;;;;5093442;28;20455;-58
2023/05/21 17:47:20;;;;;;;15.17;13.77;;;;;;;;;;5097196;28;20475;-58
2023/05/21 17:49:47;;;;;;;14.83;13.43;;;;;;;;;;5090193;28;20450;-57
2023/05/21 17:52:13;;;;;;;15.87;14.17;;;;;;;;;;5073331;28;20487;-57
2023/05/21 17:54:40;;;;;;;15.10;13.63;;;;;;;;;;5071451;28;20542;-57
2023/05/21 17:57:06;;;;;;;15.70;13.80;;;;;;;;;;5091541;28;20509;-57
2023/05/21 17:59:32;;;;;;;15.80;12.57;;;;;;;;;;5099323;28;20478;-57
2023/05/21 18:02:02;;;;;;;16.17;14.63;;;;;;;;;;5098559;28;20478;-57
2023/05/21 18:04:30;;;;;;;14.70;13.00;;;;;;;;;;5097408;28;20906;-57
2023/05/21 18:06:56;;;;;;;16.23;14.33;;;;;;;;;;5079414;28;20713;-58
2023/05/21 18:09:23;;;;;;;14.63;13.13;;;;;;;;;;5077626;28;20455;-57
2023/05/21 18:11:50;;;;;;;16.40;14.63;;;;;;;;;;5079610;28;20505;-58
2023/05/21 18:14:16;;;;;;;15.43;13.83;;;;;;;;;;5076182;28;20488;-57
2023/05/21 18:16:43;;;;;;;14.37;12.87;;;;;;;;;;5078886;28;20503;-58
2023/05/21 18:19:09;;;;;;;15.00;13.53;;;;;;;;;;5088046;28;20486;-58
2023/05/21 18:21:40;;;;;;;17.03;14.40;;;;;;;;;;5083769;28;20513;-58
2023/05/21 18:24:10;;;;;;;15.90;13.97;;;;;;;;;;5079644;28;20483;-58
2023/05/21 18:26:37;;;;;;;16.17;13.90;;;;;;;;;;5083152;28;20490;-58
2023/05/21 18:29:08;;;;;;;19.10;14.40;;;;;;;;;;5081802;28;20589;-58
2023/05/21 18:31:34;;;;;;;17.50;15.10;;;;;;;;;;5079699;28;20491;-58
2023/05/21 18:34:01;;;;;;;16.40;14.70;;;;;;;;;;5081932;28;20979;-57
2023/05/21 18:36:27;;;;;;;18.43;15.23;;;;;;;;;;5083581;28;20891;-58
2023/05/21 18:38:56;;;;;;;15.00;13.60;;;;;;;;;;5081970;28;20452;-58
2023/05/21 18:41:23;;;;;;;16.33;14.73;;;;;;;;;;5079414;28;20483;-58
2023/05/21 18:43:50;;;;;;;16.80;15.10;;;;;;;;;;5082998;28;20543;-58
2023/05/21 18:46:16;;;;;;;17.10;14.87;;;;;;;;;;5080677;28;20499;-59
2023/05/21 18:48:43;;;;;;;15.70;14.10;;;;;;;;;;5073706;28;20447;-57
2023/05/21 18:51:09;;;;;;;17.17;15.33;;;;;;;;;;5080205;28;20476;-57
2023/05/21 18:53:36;;;;;;;15.67;13.60;;;;;;;;;;5080206;28;20567;-58
2023/05/21 18:56:06;;;;;;;16.10;14.40;;;;;;;;;;5078081;28;20471;-58
2023/05/21 18:58:32;;;;;;;16.40;14.70;;;;;;;;;;5080935;28;20463;-58
2023/05/21 19:00:59;;;;;;;16.10;14.50;;;;;;;;;;5080777;28;20480;-57
2023/05/21 19:03:26;;;;;;;16.70;15.00;;;;;;;;;;5080632;28;20784;-58
2023/05/21 19:05:52;;;;;;;15.57;14.07;;;;;;;;;;5080322;28;20484;-58
2023/05/21 19:08:22;;;;;;;16.70;15.00;;;;;;;;;;5080458;28;20450;-59
2023/05/21 19:10:49;;;;;;;16.57;14.30;;;;;;;;;;5078926;28;20468;-58
2023/05/21 19:13:17;;;;;;;17.23;15.50;;;;;;;;;;5081445;28;20447;-58
2023/05/21 19:15:47;;;;;;;17.70;15.20;;;;;;;;;;5079834;28;20472;-58
2023/05/21 19:18:13;;;;;;;15.50;13.87;;;;;;;;;;5078460;28;20455;-58
2023/05/21 19:20:40;;;;;;;16.30;14.20;;;;;;;;;;5079159;28;20478;-57
2023/05/21 19:23:06;;;;;;;15.53;14.00;;;;;;;;;;5080728;28;20448;-58
2023/05/21 19:25:32;;;;;;;19.20;14.23;;;;;;;;;;5078552;28;20525;-57
2023/05/21 19:28:00;;;;;;;16.77;14.90;;;;;;;;;;5079991;28;20517;-58
2023/05/21 19:30:28;;;;;;;17.10;15.47;;;;;;;;;;5078525;28;20472;-57
2023/05/21 19:32:54;;;;;;;16.10;14.57;;;;;;;;;;5079576;28;20505;-58
2023/05/21 19:35:21;;;;;;;15.67;14.10;;;;;;;;;;5079405;28;20559;-58
2023/05/21 19:37:47;;;;;;;16.83;14.73;;;;;;;;;;5075135;28;20556;-57
2023/05/21 19:40:16;;;;;;;18.67;15.13;;;;;;;;;;5077899;28;20456;-58
2023/05/21 19:42:42;;;;;;;17.50;14.93;;;;;;;;;;5079869;28;20440;-58
2023/05/21 19:45:10;;;;;;;17.77;15.87;;;;;;;;;;5079276;28;20558;-57
2023/05/21 19:47:39;;;;;;;17.17;15.20;;;;;;;;;;5079299;28;20443;-57
2023/05/21 19:50:06;;;;;;;18.23;16.23;;;;;;;;;;5079598;28;20532;-57
2023/05/21 19:52:33;;;;;;;16.10;14.50;;;;;;;;;;5079245;28;20460;-58
2023/05/21 19:55:03;;;;;;;18.27;16.57;;;;;;;;;;5075793;28;20960;-57
2023/05/21 19:57:30;;;;;;;17.03;15.33;;;;;;;;;;5078997;28;20823;-58
2023/05/21 19:59:57;;;;;;;17.73;15.70;;;;;;;;;;5078751;28;20455;-58
2023/05/21 20:02:23;;;;;;;17.00;15.40;;;;;;;;;;5069474;28;20450;-57
2023/05/21 20:04:59;;;;;;;17.00;15.23;;;;;;;;;;5059754;28;20301;-57
2023/05/21 20:07:25;;;;;;;17.93;15.37;;;;;;;;;;5086232;28;21049;-58
2023/05/21 20:09:52;;;;;;;19.03;17.03;;;;;;;;;;5090243;28;20467;-57
2023/05/21 20:12:18;;;;;;;18.60;15.30;;;;;;;;;;5061184;28;20503;-57
2023/05/21 20:14:46;;;;;;;18.67;16.47;;;;;;;;;;5057825;28;20523;-57
2023/05/21 20:17:13;;;;;;;17.50;15.70;;;;;;;;;;5076536;28;20529;-56
2023/05/21 20:19:39;;;;;;;18.67;16.80;;;;;;;;;;5080158;28;20480;-58
2023/05/21 20:22:07;;;;;;;19.13;15.43;;;;;;;;;;5079662;28;20470;-58
2023/05/21 20:24:33;;;;;;;18.67;16.80;;;;;;;;;;5078604;28;20533;-57
2023/05/21 20:27:01;;;;;;;18.53;16.30;;;;;;;;;;5079286;28;21177;-57
2023/05/21 20:29:27;;;;;;;16.97;15.33;;;;;;;;;;5077186;28;20452;-56
2023/05/21 20:31:54;;;;;;;18.20;16.40;;;;;;;;;;5078701;28;20484;-56
2023/05/21 20:34:22;;;;;;;17.30;15.60;;;;;;;;;;5079740;28;20451;-57
2023/05/21 20:36:49;;;;;;;21.43;16.60;;;;;;;;;;5090810;28;20554;-56
2023/05/21 20:39:20;;;;;;;16.57;14.97;;;;;;;;;;5078753;28;20447;-57
2023/05/21 20:41:47;;;;;;;17.73;16.03;;;;;;;;;;5079364;28;20498;-58
2023/05/21 20:44:13;;;;;;;17.40;15.50;;;;;;;;;;5080346;28;20490;-57
2023/05/21 20:46:40;;;;;;;17.17;15.40;;;;;;;;;;5067379;28;20477;-57
2023/05/21 20:49:08;;;;;;;18.33;16.53;;;;;;;;;;5069541;28;20445;-58
2023/05/21 20:51:35;;;;;;;18.93;16.47;;;;;;;;;;5071855;28;20487;-57
2023/05/21 20:54:01;;;;;;;18.00;16.13;;;;;;;;;;5077959;28;21008;-57
2023/05/21 20:56:30;;;;;;;18.17;16.30;;;;;;;;;;5079128;28;20472;-58
2023/05/21 20:58:56;;;;;;;17.23;15.53;;;;;;;;;;5080039;28;20451;-57
2023/05/21 21:01:23;;;;;;;15.50;14.00;;;;;;;;;;5073875;28;20475;-57
2023/05/21 21:03:49;;;;;;;17.70;15.30;;;;;;;;;;5080443;28;20447;-58
2023/05/21 21:06:17;;;;;;;18.63;15.77;;;;;;;;;;5061322;28;20504;-57
2023/05/21 21:08:48;;;;;;;16.83;15.13;;;;;;;;;;5058630;28;20464;-58
2023/05/21 21:11:15;;;;;;;16.10;14.50;;;;;;;;;;5059244;28;20480;-57
2023/05/21 21:13:43;;;;;;;17.67;15.77;;;;;;;;;;5060225;28;20978;-57
2023/05/21 21:16:09;;;;;;;18.10;15.27;;;;;;;;;;5070730;28;20484;-57
2023/05/21 21:18:36;;;;;;;16.40;14.70;;;;;;;;;;5074851;28;20456;-57
2023/05/21 21:21:03;;;;;;;18.10;16.30;;;;;;;;;;5075993;28;21067;-57
2023/05/21 21:23:29;;;;;;;18.97;17.17;;;;;;;;;;5078578;28;20444;-57
2023/05/21 21:25:56;;;;;;;16.73;15.13;;;;;;;;;;5084007;28;20543;-57
2023/05/21 21:28:22;;;;;;;18.40;16.63;;;;;;;;;;5082712;28;20864;-57
2023/05/21 21:30:50;;;;;;;17.47;15.87;;;;;;;;;;5088877;28;20898;-57
2023/05/21 21:33:17;;;;;;;18.00;16.27;;;;;;;;;;5079802;28;20448;-57
2023/05/21 21:35:43;;;;;;;18.50;16.13;;;;;;;;;;5078972;28;20576;-58
2023/05/21 21:38:09;;;;;;;18.20;15.70;;;;;;;;;;5078458;28;20687;-57
2023/05/21 21:40:36;;;;;;;20.37;18.23;;;;;;;;;;5078929;28;20488;-57
2023/05/21 21:43:02;;;;;;;18.00;16.30;;;;;;;;;;5084007;28;20458;-57
2023/05/21 21:45:29;;;;;;;18.63;16.83;;;;;;;;;;5081710;28;20561;-56
2023/05/21 21:47:57;;;;;;;18.60;16.80;;;;;;;;;;5083492;28;20448;-56
2023/05/21 21:50:23;;;;;;;18.87;16.43;;;;;;;;;;5082809;28;20585;-56
2023/05/21 21:52:54;;;;;;;18.43;16.40;;;;;;;;;;5082773;28;20455;-57
2023/05/21 21:55:21;;;;;;;17.37;15.57;;;;;;;;;;5082563;28;20562;-56
2023/05/21 21:57:47;;;;;;;18.10;16.23;;;;;;;;;;5087065;28;20946;-57
2023/05/21 22:00:16;;;;;;;20.43;18.43;;;;;;;;;;5084962;28;20452;-56
2023/05/21 22:02:45;;;;;;;19.70;17.70;;;;;;;;;;5073257;28;20623;-57
2023/05/21 22:05:14;;;;;;;18.13;16.33;;;;;;;;;;5082346;28;20460;-57
2023/05/21 22:07:40;;;;;;;17.97;16.17;;;;;;;;;;5081664;28;20851;-56
2023/05/21 22:10:07;;;;;;;18.47;16.57;;;;;;;;;;5086163;28;20456;-57
2023/05/21 22:12:34;;;;;;;17.57;15.33;;;;;;;;;;5089420;28;20965;-57
2023/05/21 22:15:04;;;;;;;20.33;16.90;;;;;;;;;;5080452;28;20456;-57
2023/05/21 22:17:31;;;;;;;19.73;17.63;;;;;;;;;;5082458;28;20494;-57
2023/05/21 22:19:58;;;;;;;18.30;16.40;;;;;;;;;;5075377;28;20467;-57
2023/05/21 22:22:26;;;;;;;20.57;17.00;;;;;;;;;;5079973;28;20476;-57
2023/05/21 22:24:52;;;;;;;17.80;16.00;;;;;;;;;;5080139;28;20481;-58
2023/05/21 22:27:18;;;;;;;19.67;16.90;;;;;;;;;;5083882;28;20514;-57
2023/05/21 22:29:45;;;;;;;18.43;16.50;;;;;;;;;;5081993;28;20448;-58
2023/05/21 22:32:12;;;;;;;22.60;18.13;;;;;;;;;;5080119;28;20523;-58
2023/05/21 22:34:38;;;;;;;19.73;17.87;;;;;;;;;;5082429;28;20828;-58
2023/05/21 22:37:05;;;;;;;21.60;17.87;;;;;;;;;;5089301;28;20517;-57
2023/05/21 22:39:32;;;;;;;19.80;17.87;;;;;;;;;;5082235;28;20819;-57
2023/05/21 22:41:59;;;;;;;20.00;18.00;;;;;;;;;;5082161;28;20480;-57
2023/05/21 22:44:26;;;;;;;19.63;17.73;;;;;;;;;;5081927;28;20452;-57
2023/05/21 22:46:53;;;;;;;18.50;16.70;;;;;;;;;;5082054;28;20473;-57
2023/05/21 22:49:19;;;;;;;19.73;17.70;;;;;;;;;;5090667;28;20973;-57
2023/05/21 22:51:46;;;;;;;19.27;17.47;;;;;;;;;;5082803;28;20567;-57
2023/05/21 22:54:12;;;;;;;21.07;18.33;;;;;;;;;;5081558;28;20483;-57
2023/05/21 22:56:40;;;;;;;19.17;17.40;;;;;;;;;;5088304;28;20529;-57
2023/05/21 22:59:06;;;;;;;19.27;17.27;;;;;;;;;;5082833;28;20456;-57
2023/05/21 23:01:33;;;;;;;19.50;17.20;;;;;;;;;;5082432;28;20476;-57
2023/05/21 23:03:59;;;;;;;17.90;15.77;;;;;;;;;;5083074;28;20516;-57
2023/05/21 23:06:25;;;;;;;18.20;16.30;;;;;;;;;;5075404;28;20530;-57
2023/05/21 23:08:52;;;;;;;18.33;16.63;;;;;;;;;;5068497;28;20453;-57
2023/05/21 23:11:18;;;;;;;20.53;16.57;;;;;;;;;;5071800;28;20514;-57
2023/05/21 23:13:46;;;;;;;19.20;17.17;;;;;;;;;;5082535;28;20524;-57
2023/05/21 23:16:13;;;;;;;16.47;14.87;;;;;;;;;;5081723;28;20504;-57
2023/05/21 23:18:39;;;;;;;18.77;16.87;;;;;;;;;;5082539;28;20940;-57
2023/05/21 23:21:06;;;;;;;17.33;15.60;;;;;;;;;;5082473;28;20467;-57
2023/05/21 23:23:32;;;;;;;17.87;16.07;;;;;;;;;;5082587;28;20450;-57
2023/05/21 23:25:59;;;;;;;19.30;17.40;;;;;;;;;;5080665;28;20472;-57
2023/05/21 23:28:25;;;;;;;19.43;15.80;;;;;;;;;;5082315;28;20495;-57
2023/05/21 23:30:53;;;;;;;17.27;15.43;;;;;;;;;;5079831;28;20507;-57
2023/05/21 23:33:20;;;;;;;18.73;16.83;;;;;;;;;;5064493;28;20441;-57
2023/05/21 23:35:46;;;;;;;19.97;17.93;;;;;;;;;;5068703;28;20479;-57
2023/05/21 23:38:13;;;;;;;19.73;17.67;;;;;;;;;;5085647;28;20487;-57
2023/05/21 23:40:39;;;;;;;19.13;17.10;;;;;;;;;;5080888;28;20484;-57
2023/05/21 23:43:05;;;;;;;19.17;17.30;;;;;;;;;;5080945;28;21017;-56
2023/05/21 23:45:32;;;;;;;19.83;17.87;;;;;;;;;;5078390;28;20505;-56
2023/05/21 23:48:00;;;;;;;24.10;19.53;;;;;;;;;;5081352;28;20655;-56
2023/05/21 23:50:26;;;;;;;26.60;19.67;;;;;;;;;;5081654;28;20464;-57
2023/05/21 23:52:52;;;;;;;23.07;20.57;;;;;;;;;;5081746;28;20528;-57
2023/05/21 23:55:19;;;;;;;24.63;20.70;;;;;;;;;;5078977;28;20490;-57
2023/05/21 23:57:45;;;;;;;27.10;20.73;;;;;;;;;;5082097;28;20443;-57
